Aérodrome :
LOGIN :

S'inscrire | Disclaimer

   EN    FR    IT 

 










Légende :    VFR   VFR Marginal   IFR   IFR Intensif   IFR Très Intensif
Visi : 
Plafond : 
>= 8 km
>= 3000ft
5 à 8 km
1000 à 3000 ft
1500m à 5 km
500 à 1000 ft
800 à 1500m
200 à 500 ft
< 800m
< 200 ft
Symboles :   Orages  Brouillard  Fortes neiges  Fortes précipitations  Vent > 20 kt
SIGMETs :   Divers  Orages  Givrage  Turbulence  Onde Orograph.  Cendres Volcan.







- Altitude de l'aérodrome : 357 ft
- Code IATA : TUF
- Voir les cartes d'approche


LFOT - Tours

DERNIER METAR :
  • 200930Z AUTO 03006KT 340V080 9000 NSC 17/10 Q1019 NOSIG

METARs EXPIRÉS :
  • 200900Z AUTO 03004KT 340V090 8000 NSC 17/10 Q1020 NOSIG
  • 200830Z AUTO 02004KT 310V100 7000 NSC 15/10 Q1020 NOSIG
  • 200800Z AUTO 04004KT 340V090 8000 NSC 14/09 Q1020 NOSIG
  • 200730Z AUTO 06005KT 360V090 7000 NSC 13/09 Q1020 NOSIG
  • 200700Z AUTO 02004KT 330V060 6000 NSC 12/09 Q1020 NOSIG

TAF TAF LFOT
Valide du 20 à 06h jusqu'au 21 à 06h UTC


200500Z 2006/2106 04007KT CAVOK
TEMPO 2006/2007 4000 BR NSC
PROB40
TEMPO 2012/2016 SCT045TCU
Pas de NOTAMs connus pour ce terrain.



MET'MAP, la Météo Aéronautique d'un coup d'oeil ! - Copyright ORBIFLY Décembre 2007 - Disclaimer

ORBIFLY MET'MAP TEAM :

Programmation & Développement : Alexandra Zaïnal
Conception & Développement : Baudouin d'Aumeries
Co-Programmation & Développement : Marc-Olivier Méhu
Soutien technique & logistique : Manuel Goepfert

Contact : metmap@orbifly.com




SOURCES & CREDITS :

   NOAA